CMA-CGM Fort Saint Pierre — FQFM — position and weather

sailwx.info

Track history (hours):
 
Tides and Currents Weather Stations Pressure Air Temp Water Temp Dewpoint Dewpoint Depression Visibility Wind Speed Wind Dir Waves Ship Positions

CMA-CGM Fort Saint Pierre

Last reported at 2016-Feb-04 20:18 UTC. Time now 2016-Feb-07 17:27 UTC.
Position N 39°32' W 025°11'.

Length 197 m; beam 30 m.

Type: Ship (hazmat cat A). MMSI: 226328000.

Date/timePositionNaut miles runAvg speedWind from/ knotsBaromVisibWave heightAir tempDewpointWater temp
2016-Feb-04 20:18N 39°32' W 025°11'1520.6
2016-Feb-04 19:33N 39°23' W 025°27'2520.7
2016-Feb-04 18:21N 39°08' W 025°53'1721.3
2016-Feb-04 17:33N 38°59' W 026°11'2121.5
2016-Feb-04 16:33N 38°47' W 026°33'2221.5
2016-Feb-04 15:34N 38°34' W 026°56'2121.3
2016-Feb-04 14:34N 38°22' W 027°18'2221.5
2016-Feb-04 13:33N 38°09' W 027°40'2121.4
2016-Feb-04 12:33N 37°56' W 028°02'2121.4
2016-Feb-04 11:33N 37°43' W 028°23'2221.6
2016-Feb-04 10:33N 37°30' W 028°45'2221.6
2016-Feb-04 09:34N 37°17' W 029°07'2420.9
2016-Feb-04 08:25N 37°03' W 029°31'  
2016-Jan-27 02:28N 15°33' W 061°33'2711.7
2016-Jan-27 00:08N 16°00' W 061°29'711.9
2016-Jan-26 23:33N 16°07' W 061°28'8 7.8
2016-Jan-26 22:34N 16°14' W 061°32'0 0.0
2016-Jan-26 10:31N 16°14' W 061°33'0 0.0
2016-Jan-26 09:31N 16°14' W 061°33'0 0.0
2016-Jan-26 08:31N 16°14' W 061°33'0 0.0
2016-Jan-26 07:31N 16°14' W 061°33'0 0.0
2016-Jan-26 06:31N 16°14' W 061°33'0 0.0
2016-Jan-26 05:31N 16°14' W 061°33'0 0.0
2016-Jan-26 04:31N 16°14' W 061°33'0 0.0
2016-Jan-26 03:25N 16°14' W 061°33'0 0.0
2016-Jan-26 02:31N 16°14' W 061°33'0 0.0
2016-Jan-26 01:31N 16°14' W 061°33'0 0.0
2016-Jan-26 00:28N 16°14' W 061°33'0 0.0
2016-Jan-25 22:25N 16°14' W 061°33'  
Track history (hours):
 
Tides and Currents Weather Stations Pressure Air Temp Water Temp Dewpoint Dewpoint Depression Visibility Wind Speed Wind Dir Waves Ship Positions

CMA-CGM Fort Saint Pierre

Last reported at 2016-Feb-04 20:18 UTC. Time now 2016-Feb-07 17:27 UTC.
Position N 39°32' W 025°11'.

Length 197 m; beam 30 m.

Type: Ship (hazmat cat A). MMSI: 226328000.

Date/timePositionNaut miles runAvg speedWind from/ knotsBaromVisibWave heightAir tempDewpointWater temp
2016-Feb-04 20:18N 39°32' W 025°11'1520.6
2016-Feb-04 19:33N 39°23' W 025°27'2520.7
2016-Feb-04 18:21N 39°08' W 025°53'1721.3
2016-Feb-04 17:33N 38°59' W 026°11'2121.5
2016-Feb-04 16:33N 38°47' W 026°33'2221.5
2016-Feb-04 15:34N 38°34' W 026°56'2121.3
2016-Feb-04 14:34N 38°22' W 027°18'2221.5
2016-Feb-04 13:33N 38°09' W 027°40'2121.4
2016-Feb-04 12:33N 37°56' W 028°02'2121.4
2016-Feb-04 11:33N 37°43' W 028°23'2221.6
2016-Feb-04 10:33N 37°30' W 028°45'2221.6
2016-Feb-04 09:34N 37°17' W 029°07'2420.9
2016-Feb-04 08:25N 37°03' W 029°31'  
2016-Jan-27 02:28N 15°33' W 061°33'2711.7
2016-Jan-27 00:08N 16°00' W 061°29'711.9
2016-Jan-26 23:33N 16°07' W 061°28'8 7.8
2016-Jan-26 22:34N 16°14' W 061°32'0 0.0
2016-Jan-26 10:31N 16°14' W 061°33'0 0.0
2016-Jan-26 09:31N 16°14' W 061°33'0 0.0
2016-Jan-26 08:31N 16°14' W 061°33'0 0.0
2016-Jan-26 07:31N 16°14' W 061°33'0 0.0
2016-Jan-26 06:31N 16°14' W 061°33'0 0.0
2016-Jan-26 05:31N 16°14' W 061°33'0 0.0
2016-Jan-26 04:31N 16°14' W 061°33'0 0.0
2016-Jan-26 03:25N 16°14' W 061°33'0 0.0
2016-Jan-26 02:31N 16°14' W 061°33'0 0.0
2016-Jan-26 01:31N 16°14' W 061°33'0 0.0
2016-Jan-26 00:28N 16°14' W 061°33'0 0.0
2016-Jan-25 22:25N 16°14' W 061°33'  

Dump ship's entire track history